To NAV CANADA Home Page Login to a new session Search on AWWS site Feedback and Comments Disclaimer Vers la page française équivalente Tips FAQ What's new on the site To the Forecasts and Observations / NOTAM section To "File a Flight Plan" website Publications and other links Update of the User's profile FIC Telephone Numbers My Weather Data Folder Route Weather Data Regional Weather Data Local Weather Data To the Forecasts and Observations / NOTAM section
Request Generated 09/01/2016 at 03:32:51 UTC . Weather information available at that time is displayed.

METAR/TAF

SLAVE LAKE/AB    (show WxCam)

METAR CYZH 010300Z AUTO 06003KT 040V110 9SM CLR 14/12 A2987 RMK
SLP126 DENSITY ALT 2200FT=
METAR CYZH 010200Z AUTO 07003KT 040V110 9SM CLR 15/13 A2988 RMK
SLP128 DENSITY ALT 2400FT=
METAR CYZH 010100Z AUTO 11004KT 9SM FEW019 16/12 A2988 RMK SLP130
DENSITY ALT 2500FT=

TAF CYZH 010038Z 0101/0113 12006KT P6SM SCT015 TEMPO 0101/0103 BKN015
FM010500 VRB03KT P6SM FEW015 PROB40 0108/0112 1/4SM FG
FM011200 VRB03KT 2SM -SHRA BR OVC006
RMK FCST BASED ON AUTO OBS. NXT FCST BY 010700Z=
Your time UTC time
Weather data provided by Environment Canada and NAV CANADA